sensor_id;sensor_type;location;lat;lon;timestamp;pressure;altitude;pressure_sealevel;temperature;humidity
37068;BME280;22982;42.848;25.468;2023-08-01T00:00:48;95923.69;;;16.76;100.00
37068;BME280;22982;42.848;25.468;2023-08-01T00:05:51;95949.44;;;16.55;100.00
37068;BME280;22982;42.848;25.468;2023-08-01T00:10:54;95940.25;;;16.39;100.00
37068;BME280;22982;42.848;25.468;2023-08-01T00:15:56;95943.84;;;16.29;100.00
37068;BME280;22982;42.848;25.468;2023-08-01T00:21:08;95934.22;;;16.18;100.00
37068;BME280;22982;42.848;25.468;2023-08-01T00:26:12;95929.63;;;16.30;100.00
37068;BME280;22982;42.848;25.468;2023-08-01T00:31:14;95925.56;;;16.16;100.00
37068;BME280;22982;42.848;25.468;2023-08-01T00:36:17;95922.81;;;16.17;100.00
37068;BME280;22982;42.848;25.468;2023-08-01T00:41:19;95926.53;;;16.15;100.00
37068;BME280;22982;42.848;25.468;2023-08-01T00:46:22;95916.47;;;15.99;100.00
37068;BME280;22982;42.848;25.468;2023-08-01T00:51:26;95910.91;;;15.92;100.00
37068;BME280;22982;42.848;25.468;2023-08-01T00:56:30;95913.22;;;15.85;100.00
37068;BME280;22982;42.848;25.468;2023-08-01T01:01:32;95908.63;;;15.78;100.00
37068;BME280;22982;42.848;25.468;2023-08-01T01:06:47;95920.09;;;15.67;100.00
37068;BME280;22982;42.848;25.468;2023-08-01T01:11:51;95919.53;;;15.63;100.00
37068;BME280;22982;42.848;25.468;2023-08-01T01:16:54;95915.06;;;15.64;100.00
37068;BME280;22982;42.848;25.468;2023-08-01T01:21:58;95922.91;;;15.75;100.00
37068;BME280;22982;42.848;25.468;2023-08-01T01:27:00;95916.91;;;15.73;100.00
37068;BME280;22982;42.848;25.468;2023-08-01T01:32:06;95898.88;;;15.78;100.00
37068;BME280;22982;42.848;25.468;2023-08-01T01:37:08;95899.38;;;15.72;100.00
37068;BME280;22982;42.848;25.468;2023-08-01T01:42:11;95894.00;;;15.53;100.00
37068;BME280;22982;42.848;25.468;2023-08-01T01:47:15;95888.16;;;15.18;100.00
37068;BME280;22982;42.848;25.468;2023-08-01T01:52:18;95891.16;;;15.13;100.00
37068;BME280;22982;42.848;25.468;2023-08-01T01:57:20;95913.97;;;15.15;100.00
37068;BME280;22982;42.848;25.468;2023-08-01T02:02:23;95905.06;;;15.16;100.00
37068;BME280;22982;42.848;25.468;2023-08-01T02:07:27;95904.56;;;15.22;100.00
37068;BME280;22982;42.848;25.468;2023-08-01T02:12:29;95907.31;;;15.41;100.00
37068;BME280;22982;42.848;25.468;2023-08-01T02:17:34;95902.53;;;15.35;100.00
37068;BME280;22982;42.848;25.468;2023-08-01T02:22:37;95903.31;;;15.26;100.00
37068;BME280;22982;42.848;25.468;2023-08-01T02:27:39;95899.03;;;15.25;100.00
37068;BME280;22982;42.848;25.468;2023-08-01T02:32:42;95905.25;;;15.24;100.00
37068;BME280;22982;42.848;25.468;2023-08-01T02:37:44;95901.13;;;15.31;100.00
37068;BME280;22982;42.848;25.468;2023-08-01T02:42:47;95889.66;;;15.42;100.00
37068;BME280;22982;42.848;25.468;2023-08-01T02:47:49;95887.94;;;15.31;100.00
37068;BME280;22982;42.848;25.468;2023-08-01T02:52:52;95891.38;;;15.22;100.00
37068;BME280;22982;42.848;25.468;2023-08-01T02:57:55;95898.25;;;15.34;100.00
37068;BME280;22982;42.848;25.468;2023-08-01T03:02:58;95890.94;;;15.47;100.00
37068;BME280;22982;42.848;25.468;2023-08-01T03:08:00;95895.41;;;15.57;100.00
37068;BME280;22982;42.848;25.468;2023-08-01T03:13:03;95886.00;;;15.64;100.00
37068;BME280;22982;42.848;25.468;2023-08-01T03:18:06;95886.97;;;15.63;100.00
37068;BME280;22982;42.848;25.468;2023-08-01T03:23:08;95892.47;;;15.50;100.00
37068;BME280;22982;42.848;25.468;2023-08-01T03:28:11;95903.31;;;15.47;100.00
37068;BME280;22982;42.848;25.468;2023-08-01T03:33:13;95905.09;;;15.46;100.00
37068;BME280;22982;42.848;25.468;2023-08-01T03:38:15;95907.00;;;15.13;100.00
37068;BME280;22982;42.848;25.468;2023-08-01T03:43:17;95904.81;;;15.19;100.00
37068;BME280;22982;42.848;25.468;2023-08-01T03:48:25;95914.31;;;15.21;100.00
37068;BME280;22982;42.848;25.468;2023-08-01T03:53:27;95916.94;;;15.00;100.00
37068;BME280;22982;42.848;25.468;2023-08-01T03:58:30;95920.66;;;14.77;100.00
37068;BME280;22982;42.848;25.468;2023-08-01T04:03:32;95915.31;;;15.09;100.00
37068;BME280;22982;42.848;25.468;2023-08-01T04:08:35;95918.22;;;15.27;100.00
37068;BME280;22982;42.848;25.468;2023-08-01T04:13:37;95910.22;;;15.69;100.00
37068;BME280;22982;42.848;25.468;2023-08-01T04:18:40;95899.19;;;15.85;100.00
37068;BME280;22982;42.848;25.468;2023-08-01T04:23:42;95893.75;;;15.86;100.00
37068;BME280;22982;42.848;25.468;2023-08-01T04:28:46;95898.31;;;15.84;100.00
37068;BME280;22982;42.848;25.468;2023-08-01T04:33:49;95904.34;;;15.86;100.00
37068;BME280;22982;42.848;25.468;2023-08-01T04:38:51;95917.97;;;15.92;100.00
37068;BME280;22982;42.848;25.468;2023-08-01T04:43:54;95913.91;;;16.28;100.00
37068;BME280;22982;42.848;25.468;2023-08-01T04:48:56;95922.88;;;16.66;100.00
37068;BME280;22982;42.848;25.468;2023-08-01T04:53:58;95910.88;;;16.72;100.00
37068;BME280;22982;42.848;25.468;2023-08-01T04:59:01;95900.16;;;17.02;100.00
37068;BME280;22982;42.848;25.468;2023-08-01T05:04:04;95907.53;;;17.09;100.00
37068;BME280;22982;42.848;25.468;2023-08-01T05:09:07;95905.13;;;17.72;100.00
37068;BME280;22982;42.848;25.468;2023-08-01T05:14:09;95878.94;;;18.43;100.00
37068;BME280;22982;42.848;25.468;2023-08-01T05:19:11;95889.56;;;18.97;100.00
37068;BME280;22982;42.848;25.468;2023-08-01T05:24:14;95883.31;;;19.50;100.00
37068;BME280;22982;42.848;25.468;2023-08-01T05:29:16;95889.50;;;19.85;100.00
37068;BME280;22982;42.848;25.468;2023-08-01T05:34:19;95864.28;;;20.81;100.00
37068;BME280;22982;42.848;25.468;2023-08-01T05:39:21;95868.25;;;21.26;100.00
37068;BME280;22982;42.848;25.468;2023-08-01T05:44:23;95871.56;;;22.01;100.00
37068;BME280;22982;42.848;25.468;2023-08-01T05:49:26;95861.84;;;22.47;100.00
37068;BME280;22982;42.848;25.468;2023-08-01T05:54:28;95862.69;;;22.94;100.00
37068;BME280;22982;42.848;25.468;2023-08-01T05:59:31;95833.56;;;23.22;100.00
37068;BME280;22982;42.848;25.468;2023-08-01T06:04:34;95855.22;;;23.80;100.00
37068;BME280;22982;42.848;25.468;2023-08-01T06:09:37;95849.63;;;24.26;100.00
37068;BME280;22982;42.848;25.468;2023-08-01T06:14:39;95845.91;;;24.86;96.74
37068;BME280;22982;42.848;25.468;2023-08-01T06:19:42;95841.47;;;25.43;92.72
37068;BME280;22982;42.848;25.468;2023-08-01T06:24:44;95836.50;;;26.09;83.84
37068;BME280;22982;42.848;25.468;2023-08-01T06:29:47;95817.06;;;29.23;61.41
37068;BME280;22982;42.848;25.468;2023-08-01T06:34:49;95801.22;;;32.86;45.82
37068;BME280;22982;42.848;25.468;2023-08-01T06:39:53;95803.50;;;34.18;38.11
37068;BME280;22982;42.848;25.468;2023-08-01T06:44:56;95805.44;;;36.11;35.12
37068;BME280;22982;42.848;25.468;2023-08-01T06:49:59;95802.97;;;37.04;34.26
37068;BME280;22982;42.848;25.468;2023-08-01T06:55:02;95794.53;;;37.36;32.16
37068;BME280;22982;42.848;25.468;2023-08-01T07:00:05;95791.81;;;37.41;31.19
37068;BME280;22982;42.848;25.468;2023-08-01T07:05:09;95779.75;;;37.73;29.22
37068;BME280;22982;42.848;25.468;2023-08-01T07:10:12;95780.81;;;37.82;30.03
37068;BME280;22982;42.848;25.468;2023-08-01T07:15:16;95781.94;;;37.55;30.01
37068;BME280;22982;42.848;25.468;2023-08-01T07:20:18;95771.47;;;36.45;31.80
37068;BME280;22982;42.848;25.468;2023-08-01T07:25:21;95778.94;;;35.16;34.89
37068;BME280;22982;42.848;25.468;2023-08-01T07:30:24;95769.50;;;34.42;32.15
37068;BME280;22982;42.848;25.468;2023-08-01T07:35:27;95787.59;;;33.87;35.21
37068;BME280;22982;42.848;25.468;2023-08-01T07:40:29;95774.94;;;33.76;34.05
37068;BME280;22982;42.848;25.468;2023-08-01T07:45:34;95782.91;;;33.83;35.10
37068;BME280;22982;42.848;25.468;2023-08-01T07:50:37;95764.34;;;33.57;31.91
37068;BME280;22982;42.848;25.468;2023-08-01T07:55:39;95763.44;;;33.91;31.07
37068;BME280;22982;42.848;25.468;2023-08-01T08:00:41;95770.13;;;34.05;32.33
37068;BME280;22982;42.848;25.468;2023-08-01T08:05:43;95780.16;;;33.44;30.79
37068;BME280;22982;42.848;25.468;2023-08-01T08:10:46;95755.63;;;33.38;32.77
37068;BME280;22982;42.848;25.468;2023-08-01T08:15:49;95752.81;;;33.67;31.26
37068;BME280;22982;42.848;25.468;2023-08-01T08:20:52;95757.28;;;33.79;31.62
37068;BME280;22982;42.848;25.468;2023-08-01T08:25:55;95757.50;;;33.94;30.32
37068;BME280;22982;42.848;25.468;2023-08-01T08:30:57;95755.50;;;33.28;31.20
37068;BME280;22982;42.848;25.468;2023-08-01T08:36:01;95746.91;;;33.36;31.52
37068;BME280;22982;42.848;25.468;2023-08-01T08:41:10;95744.59;;;33.45;31.56
37068;BME280;22982;42.848;25.468;2023-08-01T08:46:15;95758.06;;;33.74;31.21
37068;BME280;22982;42.848;25.468;2023-08-01T08:51:18;95731.56;;;34.08;29.39
37068;BME280;22982;42.848;25.468;2023-08-01T08:56:21;95730.88;;;33.96;30.43
37068;BME280;22982;42.848;25.468;2023-08-01T09:01:26;95726.13;;;33.86;29.78
37068;BME280;22982;42.848;25.468;2023-08-01T09:06:31;95726.94;;;33.48;30.14
37068;BME280;22982;42.848;25.468;2023-08-01T09:11:45;95729.44;;;33.66;29.77
37068;BME280;22982;42.848;25.468;2023-08-01T09:16:48;95720.00;;;33.57;31.09
37068;BME280;22982;42.848;25.468;2023-08-01T09:21:51;95714.22;;;32.18;32.25
37068;BME280;22982;42.848;25.468;2023-08-01T09:27:02;95715.94;;;31.55;33.49
37068;BME280;22982;42.848;25.468;2023-08-01T09:32:14;95697.00;;;32.41;33.58
37068;BME280;22982;42.848;25.468;2023-08-01T09:37:16;95693.59;;;33.97;30.81
37068;BME280;22982;42.848;25.468;2023-08-01T09:42:24;95671.72;;;34.36;29.83
37068;BME280;22982;42.848;25.468;2023-08-01T09:47:36;95681.84;;;32.74;31.66
37068;BME280;22982;42.848;25.468;2023-08-01T09:52:40;95674.38;;;32.18;32.90
37068;BME280;22982;42.848;25.468;2023-08-01T09:57:42;95678.56;;;31.97;33.40
37068;BME280;22982;42.848;25.468;2023-08-01T10:02:50;95682.09;;;31.98;33.19
37068;BME280;22982;42.848;25.468;2023-08-01T10:07:58;95673.72;;;31.99;34.07
37068;BME280;22982;42.848;25.468;2023-08-01T10:13:03;95661.81;;;32.29;33.11
37068;BME280;22982;42.848;25.468;2023-08-01T10:18:07;95655.06;;;33.55;32.30
37068;BME280;22982;42.848;25.468;2023-08-01T10:23:12;95654.03;;;34.33;31.94
37068;BME280;22982;42.848;25.468;2023-08-01T10:28:15;95636.72;;;33.90;32.50
37068;BME280;22982;42.848;25.468;2023-08-01T10:33:18;95626.66;;;34.18;31.94
37068;BME280;22982;42.848;25.468;2023-08-01T10:38:20;95624.84;;;34.61;32.37
37068;BME280;22982;42.848;25.468;2023-08-01T10:43:24;95618.72;;;35.18;30.72
37068;BME280;22982;42.848;25.468;2023-08-01T10:48:27;95617.06;;;35.17;30.61
37068;BME280;22982;42.848;25.468;2023-08-01T10:53:38;95608.81;;;35.02;31.11
37068;BME280;22982;42.848;25.468;2023-08-01T10:58:46;95617.63;;;33.18;32.85
37068;BME280;22982;42.848;25.468;2023-08-01T11:03:49;95599.31;;;34.07;31.84
37068;BME280;22982;42.848;25.468;2023-08-01T11:08:52;95582.78;;;34.41;31.91
37068;BME280;22982;42.848;25.468;2023-08-01T11:13:55;95566.09;;;35.18;31.46
37068;BME280;22982;42.848;25.468;2023-08-01T11:18:58;95564.31;;;35.39;30.84
37068;BME280;22982;42.848;25.468;2023-08-01T11:24:06;95573.69;;;35.69;30.41
37068;BME280;22982;42.848;25.468;2023-08-01T11:29:11;95562.81;;;35.84;30.82
37068;BME280;22982;42.848;25.468;2023-08-01T11:34:13;95549.72;;;35.71;29.99
37068;BME280;22982;42.848;25.468;2023-08-01T11:39:16;95552.47;;;35.96;30.65
37068;BME280;22982;42.848;25.468;2023-08-01T11:44:23;95548.59;;;37.00;29.23
37068;BME280;22982;42.848;25.468;2023-08-01T11:49:26;95523.00;;;37.46;27.60
37068;BME280;22982;42.848;25.468;2023-08-01T11:54:31;95520.72;;;37.68;28.03
37068;BME280;22982;42.848;25.468;2023-08-01T11:59:34;95508.88;;;37.78;27.94
37068;BME280;22982;42.848;25.468;2023-08-01T12:04:38;95518.38;;;38.84;26.67
37068;BME280;22982;42.848;25.468;2023-08-01T12:09:42;95503.50;;;37.08;28.89
37068;BME280;22982;42.848;25.468;2023-08-01T12:14:44;95514.84;;;36.24;29.44
37068;BME280;22982;42.848;25.468;2023-08-01T12:19:47;95506.78;;;33.97;32.40
37068;BME280;22982;42.848;25.468;2023-08-01T12:24:50;95506.88;;;32.81;34.13
37068;BME280;22982;42.848;25.468;2023-08-01T12:29:52;95510.53;;;32.53;34.96
37068;BME280;22982;42.848;25.468;2023-08-01T12:34:55;95511.13;;;32.21;36.33
37068;BME280;22982;42.848;25.468;2023-08-01T12:39:57;95500.69;;;31.79;37.45
37068;BME280;22982;42.848;25.468;2023-08-01T12:45:00;95492.28;;;31.98;37.16
37068;BME280;22982;42.848;25.468;2023-08-01T12:50:03;95498.81;;;32.31;35.81
37068;BME280;22982;42.848;25.468;2023-08-01T12:55:07;95451.09;;;32.13;35.66
37068;BME280;22982;42.848;25.468;2023-08-01T13:00:10;95459.25;;;32.35;34.35
37068;BME280;22982;42.848;25.468;2023-08-01T13:05:13;95459.78;;;32.71;35.93
37068;BME280;22982;42.848;25.468;2023-08-01T13:10:16;95463.19;;;32.83;35.55
37068;BME280;22982;42.848;25.468;2023-08-01T13:15:19;95461.16;;;32.34;36.68
37068;BME280;22982;42.848;25.468;2023-08-01T13:20:22;95476.91;;;32.54;35.93
37068;BME280;22982;42.848;25.468;2023-08-01T13:25:24;95449.16;;;32.52;35.81
37068;BME280;22982;42.848;25.468;2023-08-01T13:30:27;95446.19;;;32.71;36.83
37068;BME280;22982;42.848;25.468;2023-08-01T13:35:29;95461.09;;;32.12;36.82
37068;BME280;22982;42.848;25.468;2023-08-01T13:40:32;95470.56;;;31.93;36.89
37068;BME280;22982;42.848;25.468;2023-08-01T13:45:34;95466.06;;;31.24;38.22
37068;BME280;22982;42.848;25.468;2023-08-01T13:50:37;95459.00;;;30.42;39.99
37068;BME280;22982;42.848;25.468;2023-08-01T13:55:40;95456.34;;;30.70;40.52
37068;BME280;22982;42.848;25.468;2023-08-01T14:00:43;95453.13;;;30.21;41.46
37068;BME280;22982;42.848;25.468;2023-08-01T14:06:13;95455.81;;;30.45;41.33
37068;BME280;22982;42.848;25.468;2023-08-01T14:11:16;95413.63;;;29.96;41.96
37068;BME280;22982;42.848;25.468;2023-08-01T14:16:19;95441.47;;;30.44;42.26
37068;BME280;22982;42.848;25.468;2023-08-01T14:21:22;95442.78;;;30.42;41.70
37068;BME280;22982;42.848;25.468;2023-08-01T14:26:25;95437.63;;;30.05;41.40
37068;BME280;22982;42.848;25.468;2023-08-01T14:31:28;95446.41;;;30.12;43.29
37068;BME280;22982;42.848;25.468;2023-08-01T14:36:30;95452.50;;;30.19;42.33
37068;BME280;22982;42.848;25.468;2023-08-01T14:41:33;95419.84;;;30.09;42.52
37068;BME280;22982;42.848;25.468;2023-08-01T14:46:56;95427.16;;;30.08;42.89
37068;BME280;22982;42.848;25.468;2023-08-01T14:51:58;95436.53;;;30.06;43.76
37068;BME280;22982;42.848;25.468;2023-08-01T14:57:01;95435.84;;;29.99;43.98
37068;BME280;22982;42.848;25.468;2023-08-01T15:02:03;95428.38;;;29.58;44.27
37068;BME280;22982;42.848;25.468;2023-08-01T15:07:07;95418.38;;;29.47;45.18
37068;BME280;22982;42.848;25.468;2023-08-01T15:12:10;95403.88;;;29.84;44.44
37068;BME280;22982;42.848;25.468;2023-08-01T15:17:13;95423.22;;;29.69;43.75
37068;BME280;22982;42.848;25.468;2023-08-01T15:22:17;95421.50;;;29.74;44.23
37068;BME280;22982;42.848;25.468;2023-08-01T15:27:20;95420.59;;;29.50;45.51
37068;BME280;22982;42.848;25.468;2023-08-01T15:32:22;95402.31;;;29.52;43.81
37068;BME280;22982;42.848;25.468;2023-08-01T15:37:27;95398.09;;;29.56;44.05
37068;BME280;22982;42.848;25.468;2023-08-01T15:42:29;95410.78;;;29.68;43.84
37068;BME280;22982;42.848;25.468;2023-08-01T15:47:33;95407.84;;;29.69;44.49
37068;BME280;22982;42.848;25.468;2023-08-01T15:52:35;95411.69;;;29.08;45.86
37068;BME280;22982;42.848;25.468;2023-08-01T15:57:38;95411.31;;;29.04;46.43
37068;BME280;22982;42.848;25.468;2023-08-01T16:02:41;95405.09;;;29.04;46.21
37068;BME280;22982;42.848;25.468;2023-08-01T16:07:44;95402.22;;;28.87;47.72
37068;BME280;22982;42.848;25.468;2023-08-01T16:12:49;95412.69;;;28.95;49.28
37068;BME280;22982;42.848;25.468;2023-08-01T16:17:52;95384.47;;;28.79;49.43
37068;BME280;22982;42.848;25.468;2023-08-01T16:22:55;95408.69;;;28.86;49.63
37068;BME280;22982;42.848;25.468;2023-08-01T16:27:57;95419.28;;;28.32;52.94
37068;BME280;22982;42.848;25.468;2023-08-01T16:32:59;95387.13;;;28.30;53.29
37068;BME280;22982;42.848;25.468;2023-08-01T16:38:02;95426.50;;;28.13;53.85
37068;BME280;22982;42.848;25.468;2023-08-01T16:43:04;95417.81;;;28.11;54.16
37068;BME280;22982;42.848;25.468;2023-08-01T16:48:07;95410.66;;;28.04;55.95
37068;BME280;22982;42.848;25.468;2023-08-01T16:53:09;95416.75;;;27.93;57.09
37068;BME280;22982;42.848;25.468;2023-08-01T16:58:12;95437.13;;;27.82;57.52
37068;BME280;22982;42.848;25.468;2023-08-01T17:03:14;95425.66;;;27.68;69.04
37068;BME280;22982;42.848;25.468;2023-08-01T17:08:17;95422.03;;;27.24;72.78
37068;BME280;22982;42.848;25.468;2023-08-01T17:13:19;95449.91;;;27.05;76.03
37068;BME280;22982;42.848;25.468;2023-08-01T17:18:22;95440.88;;;26.34;82.85
37068;BME280;22982;42.848;25.468;2023-08-01T17:23:26;95447.34;;;25.39;93.16
37068;BME280;22982;42.848;25.468;2023-08-01T17:28:28;95434.16;;;24.70;100.00
37068;BME280;22982;42.848;25.468;2023-08-01T17:33:30;95470.84;;;24.56;100.00
37068;BME280;22982;42.848;25.468;2023-08-01T17:38:33;95455.06;;;24.04;100.00
37068;BME280;22982;42.848;25.468;2023-08-01T17:43:37;95442.97;;;23.59;100.00
37068;BME280;22982;42.848;25.468;2023-08-01T17:48:41;95457.22;;;23.38;100.00
37068;BME280;22982;42.848;25.468;2023-08-01T17:53:44;95484.91;;;23.51;100.00
37068;BME280;22982;42.848;25.468;2023-08-01T17:58:47;95498.47;;;23.07;100.00
37068;BME280;22982;42.848;25.468;2023-08-01T18:03:50;95494.56;;;22.73;100.00
37068;BME280;22982;42.848;25.468;2023-08-01T18:08:53;95499.56;;;22.61;100.00
37068;BME280;22982;42.848;25.468;2023-08-01T18:13:58;95512.34;;;22.21;100.00
37068;BME280;22982;42.848;25.468;2023-08-01T18:19:03;95520.06;;;22.01;100.00
37068;BME280;22982;42.848;25.468;2023-08-01T18:24:07;95538.28;;;21.59;100.00
37068;BME280;22982;42.848;25.468;2023-08-01T18:29:09;95537.34;;;21.44;100.00
37068;BME280;22982;42.848;25.468;2023-08-01T18:34:12;95549.94;;;21.04;100.00
37068;BME280;22982;42.848;25.468;2023-08-01T18:39:14;95545.53;;;20.88;100.00
37068;BME280;22982;42.848;25.468;2023-08-01T18:44:16;95534.06;;;20.79;100.00
37068;BME280;22982;42.848;25.468;2023-08-01T18:49:19;95544.72;;;20.79;100.00
37068;BME280;22982;42.848;25.468;2023-08-01T18:54:22;95569.56;;;20.80;100.00
37068;BME280;22982;42.848;25.468;2023-08-01T18:59:25;95569.25;;;20.67;100.00
37068;BME280;22982;42.848;25.468;2023-08-01T19:04:28;95564.28;;;20.55;100.00
37068;BME280;22982;42.848;25.468;2023-08-01T19:09:31;95562.06;;;20.19;100.00
37068;BME280;22982;42.848;25.468;2023-08-01T19:14:34;95563.88;;;20.11;100.00
37068;BME280;22982;42.848;25.468;2023-08-01T19:19:36;95570.41;;;20.00;100.00
37068;BME280;22982;42.848;25.468;2023-08-01T19:31:44;95586.53;;;19.82;100.00
37068;BME280;22982;42.848;25.468;2023-08-01T19:36:49;95584.84;;;19.73;100.00
37068;BME280;22982;42.848;25.468;2023-08-01T19:41:53;95581.34;;;19.39;100.00
37068;BME280;22982;42.848;25.468;2023-08-01T19:46:56;95573.84;;;19.51;100.00
37068;BME280;22982;42.848;25.468;2023-08-01T19:51:59;95576.16;;;19.29;100.00
37068;BME280;22982;42.848;25.468;2023-08-01T19:57:03;95565.53;;;19.21;100.00
37068;BME280;22982;42.848;25.468;2023-08-01T20:02:07;95570.16;;;19.11;100.00
37068;BME280;22982;42.848;25.468;2023-08-01T20:07:09;95576.44;;;18.93;100.00
37068;BME280;22982;42.848;25.468;2023-08-01T20:12:12;95573.72;;;18.85;100.00
37068;BME280;22982;42.848;25.468;2023-08-01T20:17:14;95560.44;;;18.85;100.00
37068;BME280;22982;42.848;25.468;2023-08-01T20:22:17;95574.59;;;19.02;100.00
37068;BME280;22982;42.848;25.468;2023-08-01T20:27:19;95568.94;;;18.89;100.00
37068;BME280;22982;42.848;25.468;2023-08-01T20:32:23;95561.91;;;18.80;100.00
37068;BME280;22982;42.848;25.468;2023-08-01T20:37:25;95570.69;;;18.80;100.00
37068;BME280;22982;42.848;25.468;2023-08-01T20:42:28;95561.84;;;18.63;100.00
37068;BME280;22982;42.848;25.468;2023-08-01T20:47:30;95570.34;;;18.75;100.00
37068;BME280;22982;42.848;25.468;2023-08-01T20:52:36;95556.16;;;18.58;100.00
37068;BME280;22982;42.848;25.468;2023-08-01T20:57:39;95548.16;;;18.50;100.00
37068;BME280;22982;42.848;25.468;2023-08-01T21:02:42;95565.91;;;18.41;100.00
37068;BME280;22982;42.848;25.468;2023-08-01T21:07:45;95572.50;;;18.37;100.00
37068;BME280;22982;42.848;25.468;2023-08-01T21:12:48;95574.84;;;18.40;100.00
37068;BME280;22982;42.848;25.468;2023-08-01T21:17:53;95584.88;;;18.28;100.00
37068;BME280;22982;42.848;25.468;2023-08-01T21:22:56;95583.44;;;18.08;100.00
37068;BME280;22982;42.848;25.468;2023-08-01T21:27:59;95569.81;;;17.85;100.00
37068;BME280;22982;42.848;25.468;2023-08-01T21:33:01;95587.03;;;17.98;100.00
37068;BME280;22982;42.848;25.468;2023-08-01T21:38:04;95585.81;;;17.75;100.00
37068;BME280;22982;42.848;25.468;2023-08-01T21:43:07;95571.22;;;17.89;100.00
37068;BME280;22982;42.848;25.468;2023-08-01T21:48:10;95568.31;;;17.82;100.00
37068;BME280;22982;42.848;25.468;2023-08-01T21:53:13;95561.19;;;17.83;100.00
37068;BME280;22982;42.848;25.468;2023-08-01T21:58:16;95561.19;;;17.83;100.00
37068;BME280;22982;42.848;25.468;2023-08-01T22:03:18;95545.81;;;17.68;100.00
37068;BME280;22982;42.848;25.468;2023-08-01T22:08:21;95546.47;;;17.44;100.00
37068;BME280;22982;42.848;25.468;2023-08-01T22:13:24;95551.53;;;17.55;100.00
37068;BME280;22982;42.848;25.468;2023-08-01T22:18:26;95554.72;;;17.41;100.00
37068;BME280;22982;42.848;25.468;2023-08-01T22:23:29;95557.31;;;17.33;100.00
37068;BME280;22982;42.848;25.468;2023-08-01T22:28:32;95542.81;;;17.45;100.00
37068;BME280;22982;42.848;25.468;2023-08-01T22:33:36;95546.88;;;17.31;100.00
37068;BME280;22982;42.848;25.468;2023-08-01T22:38:38;95555.72;;;17.40;100.00
37068;BME280;22982;42.848;25.468;2023-08-01T22:43:41;95551.88;;;17.16;100.00
37068;BME280;22982;42.848;25.468;2023-08-01T22:48:43;95555.38;;;17.07;100.00
37068;BME280;22982;42.848;25.468;2023-08-01T22:53:50;95539.75;;;17.14;100.00
37068;BME280;22982;42.848;25.468;2023-08-01T22:58:53;95538.69;;;16.79;100.00
37068;BME280;22982;42.848;25.468;2023-08-01T23:03:56;95558.75;;;17.09;100.00
37068;BME280;22982;42.848;25.468;2023-08-01T23:08:59;95542.78;;;17.19;100.00
37068;BME280;22982;42.848;25.468;2023-08-01T23:14:01;95543.16;;;17.06;100.00
37068;BME280;22982;42.848;25.468;2023-08-01T23:19:03;95532.59;;;16.96;100.00
37068;BME280;22982;42.848;25.468;2023-08-01T23:24:07;95528.09;;;17.07;100.00
37068;BME280;22982;42.848;25.468;2023-08-01T23:29:09;95534.72;;;17.11;100.00
37068;BME280;22982;42.848;25.468;2023-08-01T23:34:28;95540.81;;;17.21;100.00
37068;BME280;22982;42.848;25.468;2023-08-01T23:39:31;95536.50;;;17.20;100.00
37068;BME280;22982;42.848;25.468;2023-08-01T23:44:33;95533.53;;;17.23;100.00
37068;BME280;22982;42.848;25.468;2023-08-01T23:49:37;95542.81;;;17.27;100.00
37068;BME280;22982;42.848;25.468;2023-08-01T23:54:39;95541.03;;;17.28;100.00
37068;BME280;22982;42.848;25.468;2023-08-01T23:59:41;95531.22;;;17.20;100.00
